Time;durP1;ratioP1;P1;durP2;ratioP2;P2;SDS_P1;SDS_P2;PMS_P1;PMS_P2;Temp;Humidity;BMP_temperature;BMP_pressure;BME280_temperature;BME280_humidity;BME280_pressure;Samples;Min_cycle;Max_cycle;Signal;HPM_P1;HPM_P2
2022/11/27 00:01:08;;;;;;;13.60;3.00;;;5.90;99.90;;;;;;5018500;28;20180;-80
2022/11/27 00:03:34;;;;;;;6.80;2.70;;;5.90;99.90;;;;;;5036786;28;20226;-80
2022/11/27 00:05:59;;;;;;;7.27;2.53;;;5.90;99.90;;;;;;5036799;28;20259;-80
2022/11/27 00:08:25;;;;;;;12.07;3.20;;;5.90;99.90;;;;;;5037071;28;20249;-80
2022/11/27 00:10:51;;;;;;;8.50;2.50;;;5.90;99.90;;;;;;5037105;28;20226;-79
2022/11/27 00:13:16;;;;;;;7.90;2.33;;;5.90;99.90;;;;;;5019789;28;20176;-80
2022/11/27 00:15:42;;;;;;;9.37;2.47;;;5.90;99.90;;;;;;5038127;28;20639;-80
2022/11/27 00:18:08;;;;;;;11.33;2.73;;;5.90;99.90;;;;;;5038829;28;20268;-80
2022/11/27 00:20:33;;;;;;;8.83;2.83;;;5.90;99.90;;;;;;5037136;28;20231;-80
2022/11/27 00:22:59;;;;;;;5.77;2.20;;;5.90;99.90;;;;;;5038119;28;20184;-80
2022/11/27 00:25:24;;;;;;;7.73;2.63;;;5.90;99.90;;;;;;5036526;28;20183;-80
2022/11/27 00:27:50;;;;;;;6.40;2.43;;;5.90;99.90;;;;;;5020182;28;20253;-80
2022/11/27 00:30:15;;;;;;;6.37;2.53;;;5.80;99.90;;;;;;5019912;28;20608;-80
2022/11/27 00:32:41;;;;;;;6.60;2.50;;;5.80;99.90;;;;;;5037643;28;20187;-80
2022/11/27 00:35:07;;;;;;;2.90;1.70;;;5.80;99.90;;;;;;5018235;28;20183;-80
2022/11/27 00:37:32;;;;;;;9.07;2.83;;;5.80;99.90;;;;;;5016402;28;20259;-80
2022/11/27 00:39:58;;;;;;;9.77;2.53;;;5.80;99.90;;;;;;5034269;28;20234;-80
2022/11/27 00:42:23;;;;;;;8.90;2.00;;;5.80;99.90;;;;;;5034476;28;20182;-80
2022/11/27 00:44:49;;;;;;;6.63;2.37;;;5.80;99.90;;;;;;5033800;28;20487;-80
2022/11/27 00:47:16;;;;;;;3.53;2.20;;;5.80;99.90;;;;;;5016629;28;20206;-79
2022/11/27 00:49:41;;;;;;;7.87;2.43;;;5.80;99.90;;;;;;5015822;28;20306;-80
2022/11/27 00:52:07;;;;;;;6.20;2.47;;;5.80;99.90;;;;;;5016044;28;20172;-78
2022/11/27 00:54:32;;;;;;;10.00;3.53;;;5.80;99.90;;;;;;5033978;28;20173;-80
2022/11/27 00:56:58;;;;;;;4.33;1.80;;;5.80;99.90;;;;;;5016114;28;20180;-80
2022/11/27 00:59:23;;;;;;;10.73;2.77;;;5.80;99.90;;;;;;5015880;28;20294;-80
2022/11/27 01:01:49;;;;;;;5.10;2.63;;;5.80;99.90;;;;;;5034161;28;20201;-80
2022/11/27 01:04:15;;;;;;;12.60;2.27;;;5.80;99.90;;;;;;5034379;28;20180;-80
2022/11/27 01:06:41;;;;;;;7.27;2.17;;;5.80;99.90;;;;;;5018062;28;20184;-79
2022/11/27 01:09:07;;;;;;;9.50;2.33;;;5.80;99.90;;;;;;5020451;28;20277;-80
2022/11/27 01:11:34;;;;;;;5.13;2.83;;;5.80;99.90;;;;;;5021128;28;20199;-80
2022/11/27 01:14:03;;;;;;;3.20;2.07;;;5.80;99.90;;;;;;5039007;28;20678;-80
2022/11/27 01:16:31;;;;;;;5.77;2.17;;;5.80;99.90;;;;;;5038481;28;20179;-80
2022/11/27 01:18:58;;;;;;;6.27;2.10;;;5.70;99.90;;;;;;5020275;28;20227;-80
2022/11/27 01:21:26;;;;;;;8.10;1.97;;;5.80;99.90;;;;;;5038933;28;20188;-79
2022/11/27 01:23:53;;;;;;;7.53;1.97;;;5.70;99.90;;;;;;5020994;28;20180;-80
2022/11/27 01:26:18;;;;;;;3.67;2.07;;;5.80;99.90;;;;;;5039230;28;20251;-80
2022/11/27 01:28:45;;;;;;;6.57;2.23;;;5.70;99.90;;;;;;5038568;28;20238;-80
2022/11/27 01:31:16;;;;;;;11.60;3.20;;;5.70;99.90;;;;;;5039257;28;20157;-80
2022/11/27 01:33:43;;;;;;;6.60;2.10;;;5.70;99.90;;;;;;5039220;28;20169;-80
2022/11/27 01:36:11;;;;;;;7.40;2.40;;;5.70;99.90;;;;;;5039168;28;20169;-80
2022/11/27 01:38:37;;;;;;;7.70;1.70;;;5.70;99.90;;;;;;5021592;28;20181;-80
2022/11/27 01:41:24;;;;;;;5.77;3.23;;;5.70;99.90;;;;;;5022191;28;20190;-80
2022/11/27 01:43:57;;;;;;;5.00;2.23;;;5.70;99.90;;;;;;5018904;28;20190;-80
2022/11/27 01:46:31;;;;;;;5.83;2.00;;;5.70;99.90;;;;;;5036893;28;20227;-79
2022/11/27 01:49:07;;;;;;;10.10;2.53;;;5.70;99.90;;;;;;5018976;28;20590;-80
2022/11/27 01:51:33;;;;;;;5.40;2.43;;;5.70;99.90;;;;;;5036489;28;20160;-79
2022/11/27 01:53:59;;;;;;;7.93;2.23;;;5.70;99.90;;;;;;5019200;28;20208;-79
2022/11/27 01:56:27;;;;;;;5.93;2.00;;;5.70;99.90;;;;;;5018955;28;20181;-80
2022/11/27 01:58:54;;;;;;;8.90;2.23;;;5.70;99.90;;;;;;5036438;28;20627;-79
2022/11/27 02:01:21;;;;;;;2.50;1.67;;;5.70;99.90;;;;;;5036988;28;20729;-80
2022/11/27 02:03:46;;;;;;;10.67;3.13;;;5.70;99.90;;;;;;5036635;28;20177;-80
2022/11/27 02:06:12;;;;;;;8.23;2.40;;;5.70;99.90;;;;;;5036988;28;20237;-80
2022/11/27 02:08:39;;;;;;;4.83;2.23;;;5.60;99.90;;;;;;5018876;28;20204;-80
2022/11/27 02:11:31;;;;;;;6.53;2.20;;;5.70;99.90;;;;;;5019018;28;20665;-79
2022/11/27 02:14:14;;;;;;;7.77;2.47;;;5.60;99.90;;;;;;5020511;28;20167;-79
2022/11/27 02:16:50;;;;;;;7.13;2.50;;;5.60;99.90;;;;;;5036680;28;20244;-79
2022/11/27 02:19:30;;;;;;;9.37;2.23;;;5.60;99.90;;;;;;5036950;28;20200;-80
2022/11/27 02:22:21;;;;;;;6.50;1.87;;;5.60;99.90;;;;;;5037301;28;20247;-80
2022/11/27 02:25:09;;;;;;;8.63;2.20;;;5.60;99.90;;;;;;5037228;28;20172;-79
2022/11/27 02:27:46;;;;;;;7.30;2.50;;;5.60;99.90;;;;;;5037069;28;20160;-80
2022/11/27 02:30:13;;;;;;;4.87;2.40;;;5.60;99.90;;;;;;5036757;28;20578;-80
2022/11/27 02:32:48;;;;;;;5.53;2.20;;;5.50;99.90;;;;;;5037165;28;20168;-80
2022/11/27 02:35:19;;;;;;;8.67;2.70;;;5.50;99.90;;;;;;5019049;28;20168;-80
2022/11/27 02:38:05;;;;;;;7.83;2.87;;;5.50;99.90;;;;;;5019437;28;20168;-79
2022/11/27 02:40:50;;;;;;;10.70;3.23;;;5.50;99.90;;;;;;5019478;28;20200;-79
2022/11/27 02:43:36;;;;;;;7.33;2.33;;;5.50;99.90;;;;;;5019589;28;20226;-79
2022/11/27 02:46:05;;;;;;;4.13;2.20;;;5.40;99.90;;;;;;5020251;28;20643;-80
2022/11/27 02:48:35;;;;;;;7.63;2.53;;;5.40;99.90;;;;;;5037430;28;20196;-80
2022/11/27 02:51:03;;;;;;;8.50;3.23;;;5.40;99.90;;;;;;5018708;28;20553;-80
2022/11/27 02:53:36;;;;;;;8.13;3.00;;;5.40;99.90;;;;;;5036330;28;20172;-80
2022/11/27 02:56:05;;;;;;;7.33;2.57;;;5.40;99.90;;;;;;5036598;28;20195;-80
2022/11/27 02:58:32;;;;;;;7.33;3.53;;;5.30;99.90;;;;;;5018050;28;20187;-79
2022/11/27 03:00:59;;;;;;;6.47;3.03;;;5.30;99.90;;;;;;5018243;28;20180;-80
2022/11/27 03:03:29;;;;;;;10.70;3.43;;;5.30;99.90;;;;;;5036532;28;20676;-79
2022/11/27 03:06:00;;;;;;;5.00;2.60;;;5.30;99.90;;;;;;5018624;28;20180;-80
2022/11/27 03:08:41;;;;;;;5.77;2.67;;;5.30;99.90;;;;;;5018023;28;20192;-80
2022/11/27 03:11:09;;;;;;;6.37;3.23;;;5.30;99.90;;;;;;5018630;28;20175;-80
2022/11/27 03:13:40;;;;;;;6.63;3.50;;;5.30;99.90;;;;;;5017995;28;20180;-79
2022/11/27 03:16:14;;;;;;;7.70;3.80;;;5.30;99.90;;;;;;5017553;28;20673;-80
2022/11/27 03:18:57;;;;;;;8.57;3.90;;;5.30;99.90;;;;;;5017191;28;20191;-79
2022/11/27 03:21:32;;;;;;;10.47;3.67;;;5.30;99.90;;;;;;5035463;28;20175;-79
2022/11/27 03:23:58;;;;;;;6.93;3.77;;;5.20;99.90;;;;;;5035288;28;20654;-80
2022/11/27 03:26:25;;;;;;;11.07;4.37;;;5.20;99.90;;;;;;5034911;28;20237;-80
2022/11/27 03:28:52;;;;;;;9.90;3.90;;;5.30;99.90;;;;;;5016336;28;20720;-79
2022/11/27 03:31:19;;;;;;;7.00;3.73;;;5.30;99.90;;;;;;5035850;28;20169;-80
2022/11/27 03:33:45;;;;;;;10.57;3.80;;;5.30;99.90;;;;;;5017547;28;20191;-78
2022/11/27 03:36:16;;;;;;;11.53;4.03;;;5.20;99.90;;;;;;5017554;28;20188;-78
2022/11/27 03:38:44;;;;;;;10.17;4.23;;;5.20;99.90;;;;;;5016282;28;20177;-80
2022/11/27 03:41:47;;;;;;;10.57;4.70;;;5.20;99.90;;;;;;5017314;28;20184;-78
2022/11/27 03:44:21;;;;;;;9.97;4.17;;;5.20;99.90;;;;;;5017195;28;20221;-79
2022/11/27 03:47:24;;;;;;;9.37;4.47;;;5.20;99.90;;;;;;5035429;28;20586;-79
2022/11/27 03:50:05;;;;;;;9.37;4.47;;;5.20;99.90;;;;;;5017500;28;20290;-79
2022/11/27 03:53:00;;;;;;;9.63;4.80;;;5.30;99.90;;;;;;5036090;28;20157;-80
2022/11/27 03:55:38;;;;;;;9.27;4.43;;;5.20;99.90;;;;;;5018353;28;20169;-79
2022/11/27 03:58:10;;;;;;;8.87;4.33;;;5.20;99.90;;;;;;5035560;28;20160;-80
2022/11/27 04:00:39;;;;;;;8.80;4.93;;;5.30;99.90;;;;;;5016649;28;20207;-79
2022/11/27 04:03:09;;;;;;;11.53;5.57;;;5.30;99.90;;;;;;5016450;28;20180;-79
2022/11/27 04:05:34;;;;;;;13.07;5.30;;;5.30;99.90;;;;;;5034684;28;20550;-78
2022/11/27 04:08:00;;;;;;;11.73;5.47;;;5.30;99.90;;;;;;5016487;28;20205;-80
2022/11/27 04:10:25;;;;;;;9.27;4.57;;;5.30;99.90;;;;;;5033558;28;20195;-81
2022/11/27 04:12:51;;;;;;;11.43;5.03;;;5.30;99.90;;;;;;5016401;28;20176;-79
2022/11/27 04:15:16;;;;;;;9.40;5.07;;;5.40;99.90;;;;;;5034261;28;20182;-81
2022/11/27 04:17:42;;;;;;;13.50;5.60;;;5.40;99.90;;;;;;5016626;28;20179;-79
2022/11/27 04:20:09;;;;;;;12.17;5.67;;;5.40;99.90;;;;;;5016517;28;20590;-80
2022/11/27 04:22:35;;;;;;;14.00;5.17;;;5.40;99.90;;;;;;5034151;28;20173;-79
2022/11/27 04:25:00;;;;;;;9.50;5.10;;;5.40;99.90;;;;;;5016454;28;20172;-79
2022/11/27 04:27:26;;;;;;;9.30;4.70;;;5.40;99.90;;;;;;5016582;28;20176;-79
2022/11/27 04:29:51;;;;;;;11.67;6.00;;;5.40;99.90;;;;;;5016092;28;20224;-79
2022/11/27 04:32:17;;;;;;;9.07;5.10;;;5.50;99.90;;;;;;5034218;28;20184;-79
2022/11/27 04:34:42;;;;;;;8.43;4.73;;;5.50;99.90;;;;;;5034054;28;20208;-79
2022/11/27 04:37:08;;;;;;;10.83;5.60;;;5.50;99.90;;;;;;5034159;28;20251;-79
2022/11/27 04:39:33;;;;;;;9.60;4.73;;;5.50;99.90;;;;;;5016445;28;20211;-79
2022/11/27 04:41:59;;;;;;;11.50;5.37;;;5.50;99.90;;;;;;5033995;28;20183;-79
2022/11/27 04:44:24;;;;;;;11.20;5.83;;;5.50;99.90;;;;;;5034016;28;20180;-79
2022/11/27 04:46:50;;;;;;;10.80;5.60;;;5.50;99.90;;;;;;5034763;28;20180;-79
2022/11/27 04:49:15;;;;;;;13.70;5.60;;;5.50;99.90;;;;;;5034613;28;20211;-79
2022/11/27 04:51:41;;;;;;;10.17;5.57;;;5.50;99.90;;;;;;5016033;28;20180;-80
2022/11/27 04:54:07;;;;;;;10.13;4.80;;;5.50;99.90;;;;;;5016111;28;20180;-78
2022/11/27 04:56:32;;;;;;;12.20;5.47;;;5.50;99.90;;;;;;5034655;28;20180;-79
2022/11/27 04:58:58;;;;;;;10.67;5.60;;;5.50;99.90;;;;;;5034484;28;20690;-79
2022/11/27 05:01:24;;;;;;;14.17;5.70;;;5.50;99.90;;;;;;5034763;28;20242;-79
2022/11/27 05:03:49;;;;;;;10.47;5.30;;;5.50;99.90;;;;;;5034969;28;20630;-79
2022/11/27 05:06:15;;;;;;;10.80;4.80;;;5.60;99.90;;;;;;5016052;28;20180;-79
2022/11/27 05:08:41;;;;;;;9.73;4.87;;;5.50;99.90;;;;;;5033416;28;20270;-79
2022/11/27 05:11:10;;;;;;;14.40;5.27;;;5.60;99.90;;;;;;5015849;28;20266;-79
2022/11/27 05:13:35;;;;;;;13.67;5.60;;;5.60;99.90;;;;;;5034616;28;20171;-79
2022/11/27 05:16:01;;;;;;;13.63;5.30;;;5.60;99.90;;;;;;5016418;28;20173;-79
2022/11/27 05:18:27;;;;;;;11.10;4.93;;;5.60;99.90;;;;;;5016416;28;20582;-79
2022/11/27 05:21:01;;;;;;;10.10;5.50;;;5.60;99.90;;;;;;5033528;28;20203;-79
2022/11/27 05:23:27;;;;;;;8.03;4.43;;;5.60;99.90;;;;;;5016060;28;20165;-79
2022/11/27 05:25:53;;;;;;;8.23;5.13;;;5.60;99.90;;;;;;5016179;28;20267;-78
2022/11/27 05:28:19;;;;;;;10.00;5.27;;;5.60;99.90;;;;;;5034220;28;20369;-79
2022/11/27 05:30:46;;;;;;;10.07;5.47;;;5.60;99.90;;;;;;5034955;28;20204;-79
2022/11/27 05:33:11;;;;;;;9.87;5.93;;;5.60;99.90;;;;;;5016766;28;20184;-79
2022/11/27 05:35:37;;;;;;;10.33;5.10;;;5.60;99.90;;;;;;5016782;28;20172;-79
2022/11/27 05:38:03;;;;;;;10.77;5.33;;;5.60;99.90;;;;;;5034993;28;20251;-79
2022/11/27 05:40:28;;;;;;;7.17;4.77;;;5.60;99.90;;;;;;5034649;28;20196;-79
2022/11/27 05:42:54;;;;;;;11.57;5.17;;;5.60;99.90;;;;;;5016634;28;20180;-78
2022/11/27 05:45:19;;;;;;;9.30;5.43;;;5.60;99.90;;;;;;5015821;28;20180;-79
2022/11/27 05:47:45;;;;;;;8.23;5.10;;;5.60;99.90;;;;;;5034067;28;20553;-79
2022/11/27 05:50:11;;;;;;;10.40;4.60;;;5.70;99.90;;;;;;5033833;28;20201;-79
2022/11/27 05:52:36;;;;;;;8.67;4.77;;;5.60;99.90;;;;;;5033965;28;20177;-79
2022/11/27 05:55:02;;;;;;;15.97;5.00;;;5.60;99.90;;;;;;5019643;28;20184;-79
2022/11/27 05:57:29;;;;;;;8.73;5.13;;;5.60;99.90;;;;;;5037292;28;20173;-79
2022/11/27 05:59:55;;;;;;;10.33;4.87;;;5.60;99.90;;;;;;5019953;28;20204;-79
2022/11/27 06:02:21;;;;;;;14.00;5.60;;;5.70;99.90;;;;;;5020066;28;20187;-79
2022/11/27 06:04:46;;;;;;;9.43;4.50;;;5.60;99.90;;;;;;5038076;28;20188;-79
2022/11/27 06:07:12;;;;;;;11.17;4.57;;;5.70;99.90;;;;;;5037822;28;20278;-79
2022/11/27 06:09:37;;;;;;;7.37;4.47;;;5.70;99.90;;;;;;5038024;28;20581;-80
2022/11/27 06:12:03;;;;;;;5.30;3.67;;;5.70;99.90;;;;;;5038191;28;20331;-79
2022/11/27 06:14:30;;;;;;;10.27;5.13;;;5.70;99.90;;;;;;5019076;28;20225;-79
2022/11/27 06:16:56;;;;;;;8.13;4.97;;;5.70;99.90;;;;;;5019951;28;20176;-79
2022/11/27 06:19:22;;;;;;;10.27;5.20;;;5.70;99.90;;;;;;5036451;28;20203;-79
2022/11/27 06:21:47;;;;;;;11.87;5.47;;;5.70;99.90;;;;;;5018355;28;20181;-79
2022/11/27 06:24:13;;;;;;;7.63;4.77;;;5.70;99.90;;;;;;5018125;28;20180;-79
2022/11/27 06:26:38;;;;;;;9.23;4.93;;;5.80;99.90;;;;;;5018343;28;20660;-79
2022/11/27 06:29:04;;;;;;;7.23;4.23;;;5.70;99.90;;;;;;5036146;28;20223;-79
2022/11/27 06:31:31;;;;;;;8.97;4.10;;;5.70;99.90;;;;;;5018378;28;20182;-79
2022/11/27 06:33:58;;;;;;;9.47;4.50;;;5.80;99.90;;;;;;5036797;28;20255;-78
2022/11/27 06:36:28;;;;;;;6.97;4.80;;;5.80;99.90;;;;;;5019214;28;20172;-79
2022/11/27 06:38:53;;;;;;;7.90;4.37;;;5.70;99.90;;;;;;5018778;28;20204;-79
2022/11/27 06:41:22;;;;;;;12.83;5.13;;;5.80;99.90;;;;;;5018680;28;20528;-79
2022/11/27 06:43:48;;;;;;;12.30;4.77;;;5.80;99.90;;;;;;5018123;28;20191;-79
2022/11/27 06:46:16;;;;;;;10.27;4.40;;;5.80;99.90;;;;;;5019043;28;20188;-80
2022/11/27 06:48:43;;;;;;;9.00;4.60;;;5.80;99.90;;;;;;5019338;28;20200;-79
2022/11/27 06:51:12;;;;;;;7.27;4.63;;;5.80;99.90;;;;;;5036634;28;20184;-79
2022/11/27 06:53:38;;;;;;;11.17;5.17;;;5.80;99.90;;;;;;5019121;28;20592;-79
2022/11/27 06:56:05;;;;;;;6.87;4.50;;;5.80;99.90;;;;;;5018953;28;20188;-79
2022/11/27 06:58:31;;;;;;;9.07;4.47;;;5.80;99.90;;;;;;5019200;28;20176;-78
2022/11/27 07:01:03;;;;;;;7.07;4.33;;;5.80;99.90;;;;;;5019535;28;20180;-79
2022/11/27 07:03:29;;;;;;;9.53;4.30;;;5.80;99.90;;;;;;5037000;28;20181;-79
2022/11/27 07:05:58;;;;;;;10.00;4.00;;;5.80;99.90;;;;;;5019337;28;20188;-79
2022/11/27 07:08:24;;;;;;;6.90;3.97;;;5.80;99.90;;;;;;5019095;28;20597;-79
2022/11/27 07:10:49;;;;;;;10.53;4.20;;;5.80;99.90;;;;;;5019165;28;20202;-77
2022/11/27 07:13:15;;;;;;;9.87;4.57;;;5.80;99.90;;;;;;5037297;28;20186;-79
2022/11/27 07:15:40;;;;;;;9.07;4.13;;;5.80;99.90;;;;;;5037566;28;20178;-79
2022/11/27 07:18:06;;;;;;;9.43;4.23;;;5.90;99.90;;;;;;5019902;28;20203;-79
2022/11/27 07:20:31;;;;;;;6.77;3.53;;;5.90;99.90;;;;;;5018823;28;20196;-80
2022/11/27 07:22:57;;;;;;;7.73;4.37;;;5.90;99.90;;;;;;5018277;28;20184;-79
2022/11/27 07:25:23;;;;;;;7.77;3.83;;;5.90;99.90;;;;;;5037343;28;20206;-79
2022/11/27 07:27:48;;;;;;;10.23;4.20;;;5.90;99.90;;;;;;5019920;28;20187;-79
2022/11/27 07:30:14;;;;;;;9.03;3.97;;;6.00;99.90;;;;;;5019383;28;20277;-79
2022/11/27 07:32:40;;;;;;;8.30;4.23;;;6.00;99.90;;;;;;5019344;28;20609;-79
2022/11/27 07:35:06;;;;;;;7.13;3.77;;;6.00;99.90;;;;;;5018343;28;20168;-79
2022/11/27 07:37:32;;;;;;;6.97;4.00;;;6.00;99.90;;;;;;5035963;28;20647;-79
2022/11/27 07:39:58;;;;;;;4.87;3.73;;;6.00;99.90;;;;;;5018028;28;20207;-79
2022/11/27 07:42:23;;;;;;;5.83;3.90;;;6.00;99.90;;;;;;5035659;28;20181;-79
2022/11/27 07:44:49;;;;;;;5.50;3.83;;;6.10;99.90;;;;;;5035349;28;20168;-79
2022/11/27 07:47:14;;;;;;;8.90;4.00;;;6.10;99.90;;;;;;5035229;28;20183;-79
2022/11/27 07:49:40;;;;;;;10.50;3.90;;;6.10;99.90;;;;;;5018495;28;20690;-80
2022/11/27 07:52:06;;;;;;;6.73;3.90;;;6.20;99.90;;;;;;5017987;28;20246;-80
2022/11/27 07:54:31;;;;;;;6.70;3.50;;;6.20;99.90;;;;;;5035809;28;20180;-80
2022/11/27 07:56:57;;;;;;;5.20;3.40;;;6.20;99.90;;;;;;5017792;28;20643;-81
2022/11/27 07:59:22;;;;;;;4.17;3.00;;;6.20;99.90;;;;;;5035596;28;20204;-80
2022/11/27 08:01:48;;;;;;;11.50;3.73;;;6.30;99.90;;;;;;5035437;28;20176;-80
2022/11/27 08:04:13;;;;;;;5.03;3.47;;;6.30;99.90;;;;;;5036130;28;20180;-80
2022/11/27 08:06:39;;;;;;;5.70;3.57;;;6.30;99.90;;;;;;5017873;28;20172;-81
2022/11/27 08:09:04;;;;;;;6.27;3.00;;;6.40;99.90;;;;;;5035175;28;20204;-80
2022/11/27 08:11:34;;;;;;;9.37;3.53;;;6.40;99.90;;;;;;5035915;28;20172;-80
2022/11/27 08:14:09;;;;;;;4.93;3.20;;;6.40;99.90;;;;;;5018373;28;20538;-80
2022/11/27 08:16:35;;;;;;;10.83;3.63;;;6.50;99.90;;;;;;5018399;28;20255;-80
2022/11/27 08:19:01;;;;;;;6.37;3.63;;;6.50;99.90;;;;;;5036525;28;20227;-80
2022/11/27 08:21:28;;;;;;;6.67;3.00;;;6.60;99.90;;;;;;5017965;28;20776;-80
2022/11/27 08:23:55;;;;;;;5.07;3.13;;;6.60;99.90;;;;;;5018497;28;20685;-80
2022/11/27 08:26:21;;;;;;;7.93;3.23;;;6.70;99.90;;;;;;5036987;28;20183;-81
2022/11/27 08:28:46;;;;;;;10.63;3.43;;;6.70;99.90;;;;;;5017996;28;20204;-80
2022/11/27 08:31:13;;;;;;;4.40;2.80;;;6.80;99.90;;;;;;5017981;28;20186;-80
2022/11/27 08:33:39;;;;;;;8.87;3.20;;;6.80;99.90;;;;;;5017421;28;20658;-80
2022/11/27 08:36:05;;;;;;;3.47;2.50;;;6.80;99.90;;;;;;5017362;28;20177;-81
2022/11/27 08:38:31;;;;;;;9.60;3.43;;;6.90;99.90;;;;;;5017319;28;20177;-80
2022/11/27 08:41:03;;;;;;;6.63;3.30;;;6.90;99.90;;;;;;5017690;28;20180;-80
2022/11/27 08:43:29;;;;;;;6.23;2.60;;;7.00;99.90;;;;;;5035373;28;20175;-80
2022/11/27 08:45:55;;;;;;;5.83;3.40;;;7.00;99.90;;;;;;5018059;28;20187;-81
2022/11/27 08:48:22;;;;;;;5.30;2.97;;;7.00;99.90;;;;;;5036540;28;20766;-80
2022/11/27 08:50:48;;;;;;;4.07;2.67;;;7.10;99.90;;;;;;5036374;28;20196;-80
2022/11/27 08:53:15;;;;;;;11.67;3.10;;;7.10;99.90;;;;;;5019133;28;20206;-80
2022/11/27 08:55:40;;;;;;;5.03;2.90;;;7.20;99.90;;;;;;5038921;28;20259;-80
2022/11/27 08:58:06;;;;;;;4.83;2.93;;;7.20;99.90;;;;;;5041968;28;20175;-81
2022/11/27 09:00:33;;;;;;;4.83;2.70;;;7.30;99.90;;;;;;5037332;28;20667;-78
2022/11/27 09:02:59;;;;;;;8.73;2.67;;;7.30;99.90;;;;;;5036877;28;20188;-78
2022/11/27 09:05:25;;;;;;;4.63;2.70;;;7.30;99.90;;;;;;5037325;28;20203;-78
2022/11/27 09:07:51;;;;;;;4.40;2.77;;;7.30;99.90;;;;;;5037247;28;20708;-78
2022/11/27 09:10:17;;;;;;;4.03;2.43;;;7.40;99.90;;;;;;5018686;28;20196;-78
2022/11/27 09:12:45;;;;;;;3.63;2.63;;;7.30;99.90;;;;;;5035361;28;20182;-78
2022/11/27 09:15:12;;;;;;;8.83;4.20;;;7.40;99.90;;;;;;5016711;28;20204;-80
2022/11/27 09:17:38;;;;;;;5.30;3.33;;;7.40;99.90;;;;;;5034221;28;20175;-79
2022/11/27 09:20:04;;;;;;;5.83;3.50;;;7.40;99.90;;;;;;5015809;28;20206;-78
2022/11/27 09:22:30;;;;;;;5.27;2.83;;;7.50;99.90;;;;;;5016576;28;20271;-78
2022/11/27 09:24:56;;;;;;;5.47;2.77;;;7.50;99.90;;;;;;5033669;28;20614;-78
2022/11/27 09:27:21;;;;;;;5.40;2.73;;;7.50;99.90;;;;;;5017846;28;20221;-79
2022/11/27 09:29:48;;;;;;;8.57;3.00;;;7.60;99.90;;;;;;5020070;28;20702;-78
2022/11/27 09:32:14;;;;;;;6.23;2.60;;;7.60;99.90;;;;;;5037445;28;20582;-77
2022/11/27 09:34:40;;;;;;;7.13;3.10;;;7.60;99.90;;;;;;5020145;28;20176;-77
2022/11/27 09:37:06;;;;;;;4.20;2.70;;;7.70;99.90;;;;;;5036630;28;20169;-78
2022/11/27 09:39:32;;;;;;;4.33;2.70;;;7.70;99.90;;;;;;5018517;28;20192;-78
2022/11/27 09:42:00;;;;;;;4.80;2.83;;;7.70;99.90;;;;;;5036808;28;20226;-78
2022/11/27 09:44:47;;;;;;;6.77;2.83;;;7.80;99.90;;;;;;5036231;28;20171;-78
2022/11/27 09:47:28;;;;;;;5.97;2.93;;;7.80;99.90;;;;;;5036238;28;20174;-77
2022/11/27 09:50:01;;;;;;;7.47;3.07;;;7.80;99.90;;;;;;5036376;28;20414;-78
2022/11/27 09:52:45;;;;;;;5.50;3.17;;;7.80;99.90;;;;;;5036441;28;20160;-78
2022/11/27 09:55:16;;;;;;;7.33;2.30;;;7.90;99.90;;;;;;5037566;28;20149;-78
2022/11/27 09:57:52;;;;;;;3.80;2.37;;;7.90;99.90;;;;;;5020464;28;20175;-79
2022/11/27 10:00:19;;;;;;;4.37;2.70;;;7.90;99.90;;;;;;5019765;28;20694;-78
2022/11/27 10:02:45;;;;;;;5.57;2.67;;;8.00;99.90;;;;;;5021247;28;20194;-79
2022/11/27 10:05:42;;;;;;;4.07;2.40;;;8.00;99.90;;;;;;5022609;28;20634;-80
2022/11/27 10:08:20;;;;;;;7.90;2.90;;;8.10;99.90;;;;;;5013248;28;20656;-80
2022/11/27 10:11:07;;;;;;;6.13;2.90;;;8.10;99.90;;;;;;5020448;28;20192;-79
2022/11/27 10:13:50;;;;;;;5.50;2.53;;;8.10;99.90;;;;;;5038754;28;20160;-78
2022/11/27 10:16:39;;;;;;;5.40;2.40;;;8.20;99.90;;;;;;5020888;28;20164;-78
2022/11/27 10:19:28;;;;;;;6.13;2.63;;;8.20;99.90;;;;;;5037824;28;20200;-77
2022/11/27 10:21:56;;;;;;;6.10;3.00;;;8.20;99.90;;;;;;5037569;28;20199;-78
2022/11/27 10:24:43;;;;;;;4.00;2.20;;;8.20;99.90;;;;;;5037736;28;20242;-78
2022/11/27 10:27:24;;;;;;;7.83;2.53;;;8.30;99.90;;;;;;5019563;28;20168;-78
2022/11/27 10:29:54;;;;;;;5.63;2.60;;;8.30;99.90;;;;;;5019562;28;20223;-78
2022/11/27 10:32:25;;;;;;;8.53;2.50;;;8.30;99.90;;;;;;5037571;28;20179;-79
2022/11/27 10:35:04;;;;;;;5.57;3.30;;;8.30;99.90;;;;;;5020056;28;20187;-79
2022/11/27 10:37:40;;;;;;;11.40;3.60;;;8.40;99.90;;;;;;5037012;28;20176;-79
2022/11/27 10:40:09;;;;;;;4.90;3.10;;;8.40;99.90;;;;;;5037167;28;20231;-80
2022/11/27 10:42:42;;;;;;;6.43;3.23;;;8.40;99.90;;;;;;5018326;28;20191;-80
2022/11/27 10:45:20;;;;;;;5.23;2.57;;;8.40;99.90;;;;;;5018655;28;20173;-80
2022/11/27 10:47:47;;;;;;;3.13;2.47;;;8.40;99.90;;;;;;5036681;28;20196;-80
2022/11/27 10:50:14;;;;;;;6.93;3.30;;;8.30;99.90;;;;;;5018240;28;20299;-80
2022/11/27 10:52:54;;;;;;;7.27;3.03;;;8.40;99.90;;;;;;5018099;28;20177;-79
2022/11/27 10:55:43;;;;;;;5.60;3.27;;;8.40;99.90;;;;;;5018062;28;20513;-81
2022/11/27 10:58:26;;;;;;;5.10;3.37;;;8.30;99.90;;;;;;5008160;28;20275;-81
2022/11/27 11:01:10;;;;;;;7.40;3.17;;;8.30;99.90;;;;;;5035657;28;20196;-79
2022/11/27 11:03:36;;;;;;;6.57;2.63;;;8.30;99.90;;;;;;5017640;28;20175;-80
2022/11/27 11:06:05;;;;;;;4.43;2.80;;;8.30;99.90;;;;;;5017724;28;20183;-80
2022/11/27 11:08:33;;;;;;;6.37;3.20;;;8.30;99.90;;;;;;5035369;28;20254;-79
2022/11/27 11:11:01;;;;;;;5.93;2.83;;;8.30;99.90;;;;;;5035719;28;20602;-81
2022/11/27 11:13:44;;;;;;;7.00;3.67;;;8.30;99.90;;;;;;5035473;28;20195;-80
2022/11/27 11:16:10;;;;;;;8.93;3.47;;;8.30;99.90;;;;;;5017864;28;20737;-80
2022/11/27 11:18:42;;;;;;;5.30;3.00;;;8.30;99.90;;;;;;5035458;28;20196;-80
2022/11/27 11:21:16;;;;;;;4.60;3.13;;;8.30;99.90;;;;;;5036674;28;20180;-80
2022/11/27 11:23:41;;;;;;;4.83;3.23;;;8.30;99.90;;;;;;5018503;28;20257;-79
2022/11/27 11:26:13;;;;;;;5.73;3.27;;;8.30;99.90;;;;;;5037211;28;20178;-79
2022/11/27 11:28:51;;;;;;;7.27;2.87;;;8.30;99.90;;;;;;5036801;28;20269;-80
2022/11/27 11:31:21;;;;;;;8.53;3.50;;;8.30;99.90;;;;;;5019065;28;20215;-80
2022/11/27 11:34:21;;;;;;;4.83;2.57;;;8.30;99.90;;;;;;5020364;28;20266;-79
2022/11/27 11:37:06;;;;;;;7.50;3.53;;;8.30;99.90;;;;;;5036478;28;20167;-80
2022/11/27 11:39:43;;;;;;;5.67;3.17;;;8.30;99.90;;;;;;5018974;28;20196;-80
2022/11/27 11:42:17;;;;;;;4.80;2.80;;;8.40;99.90;;;;;;5036765;28;20163;-80
2022/11/27 11:44:53;;;;;;;6.37;3.30;;;8.40;99.90;;;;;;5019297;28;20211;-79
2022/11/27 11:47:25;;;;;;;4.90;2.50;;;8.40;99.90;;;;;;5020214;28;20164;-79
2022/11/27 11:49:52;;;;;;;6.13;3.07;;;8.50;99.90;;;;;;5017401;28;20207;-79
2022/11/27 11:52:30;;;;;;;3.80;2.80;;;8.50;99.90;;;;;;5034461;28;20176;-79
2022/11/27 11:55:21;;;;;;;5.10;2.97;;;8.50;99.90;;;;;;5034282;28;20243;-78
2022/11/27 11:58:09;;;;;;;4.43;2.90;;;8.60;99.90;;;;;;5034032;28;20656;-78
2022/11/27 12:00:45;;;;;;;5.70;2.83;;;8.60;99.90;;;;;;5033808;28;20670;-79
2022/11/27 12:03:32;;;;;;;4.97;2.30;;;8.70;99.90;;;;;;5016957;28;20171;-78
2022/11/27 12:06:02;;;;;;;3.67;2.40;;;8.70;99.90;;;;;;5034276;28;20187;-79
2022/11/27 12:08:33;;;;;;;5.00;2.67;;;8.70;99.90;;;;;;5034509;28;20246;-79
2022/11/27 12:11:18;;;;;;;4.57;3.17;;;8.80;99.90;;;;;;5016250;28;20658;-78
2022/11/27 12:13:53;;;;;;;6.47;3.17;;;8.80;99.90;;;;;;5016396;28;20164;-78
2022/11/27 12:16:30;;;;;;;5.80;2.33;;;8.80;99.90;;;;;;5016114;28;20636;-79
2022/11/27 12:19:32;;;;;;;7.13;2.70;;;8.80;99.90;;;;;;5033928;28;20188;-78
2022/11/27 12:22:27;;;;;;;7.37;3.17;;;8.80;99.90;;;;;;5033640;28;20167;-78
2022/11/27 12:25:17;;;;;;;6.27;3.07;;;8.90;99.90;;;;;;5015978;28;20164;-78
2022/11/27 12:27:51;;;;;;;4.67;2.73;;;8.90;99.90;;;;;;5033909;28;20619;-79
2022/11/27 12:30:20;;;;;;;4.93;2.47;;;8.90;99.90;;;;;;5015834;28;20681;-79
2022/11/27 12:32:46;;;;;;;3.70;2.37;;;8.90;99.90;;;;;;5035330;28;20222;-79
2022/11/27 12:35:40;;;;;;;5.87;2.97;;;9.00;99.90;;;;;;5034851;28;20172;-79
2022/11/27 12:38:22;;;;;;;6.83;2.70;;;9.00;99.90;;;;;;5028115;28;20191;-79
2022/11/27 12:40:57;;;;;;;5.27;2.63;;;9.10;99.90;;;;;;5018240;28;20236;-78
2022/11/27 12:43:32;;;;;;;4.60;2.63;;;9.10;99.90;;;;;;5017338;28;20160;-79
2022/11/27 12:46:20;;;;;;;9.93;2.90;;;9.10;99.90;;;;;;5035562;28;20520;-79
2022/11/27 12:49:00;;;;;;;5.03;2.40;;;9.00;99.90;;;;;;5037110;28;20192;-78
2022/11/27 12:51:26;;;;;;;3.60;2.67;;;9.10;99.90;;;;;;5019458;28;20161;-79
2022/11/27 12:54:08;;;;;;;4.00;2.50;;;9.10;99.90;;;;;;5038337;28;20164;-79
2022/11/27 12:56:47;;;;;;;4.73;2.27;;;9.10;99.90;;;;;;5040054;28;20513;-80
2022/11/27 12:59:37;;;;;;;4.03;2.53;;;9.10;99.90;;;;;;5019070;28;20211;-80
2022/11/27 13:02:41;;;;;;;4.33;2.43;;;9.10;99.90;;;;;;5020120;28;20187;-79
2022/11/27 13:05:16;;;;;;;3.07;2.10;;;9.10;99.90;;;;;;5023044;28;20180;-80
2022/11/27 13:07:51;;;;;;;4.80;2.60;;;9.10;99.90;;;;;;5023458;28;20522;-82
2022/11/27 13:10:44;;;;;;;3.73;2.00;;;9.10;99.90;;;;;;5037377;28;20195;-78
2022/11/27 13:13:21;;;;;;;9.50;2.33;;;9.10;99.90;;;;;;5019441;28;20513;-78